Time;durP1;ratioP1;P1;durP2;ratioP2;P2;SDS_P1;SDS_P2;PMS_P1;PMS_P2;Temp;Humidity;BMP_temperature;BMP_pressure;BME280_temperature;BME280_humidity;BME280_pressure;Samples;Min_cycle;Max_cycle;Signal;HPM_P1;HPM_P2
2021/11/15 00:00:42;;;;;;;10.88;7.43;;;;;16.00;102568.00;;;;5046036;28;20195;-84
2021/11/15 00:03:10;;;;;;;10.52;6.55;;;;;16.00;102566.00;;;;5043220;28;20249;-85
2021/11/15 00:05:37;;;;;;;11.55;7.43;;;;;16.00;102559.00;;;;5050020;28;20207;-85
2021/11/15 00:08:05;;;;;;;10.63;7.25;;;;;16.00;102558.00;;;;5034352;28;20211;-85
2021/11/15 00:10:34;;;;;;;11.98;7.30;;;;;16.00;102555.00;;;;5045416;28;20658;-85
2021/11/15 00:13:01;;;;;;;11.93;7.78;;;;;16.00;102553.00;;;;5037924;28;20204;-85
2021/11/15 00:15:29;;;;;;;10.68;7.35;;;;;16.00;102547.00;;;;5033087;28;20196;-85
2021/11/15 00:17:58;;;;;;;10.48;7.15;;;;;16.00;102552.00;;;;5037506;28;20199;-85
2021/11/15 00:20:26;;;;;;;11.57;7.43;;;;;16.00;102553.00;;;;5044345;28;20211;-85
2021/11/15 00:22:53;;;;;;;10.00;7.05;;;;;16.00;102550.00;;;;5045056;28;20224;-85
2021/11/15 00:25:22;;;;;;;9.45;6.57;;;;;16.00;102548.00;;;;5045498;28;20195;-85
2021/11/15 00:27:50;;;;;;;11.20;7.60;;;;;16.00;102552.00;;;;5046188;28;20583;-85
2021/11/15 00:30:19;;;;;;;10.13;7.03;;;;;16.00;102554.00;;;;5031693;28;20204;-86
2021/11/15 00:32:46;;;;;;;10.40;6.65;;;;;16.00;102548.00;;;;5044934;28;20669;-85
2021/11/15 00:35:14;;;;;;;11.10;7.55;;;;;16.00;102548.00;;;;5031757;28;20219;-85
2021/11/15 00:37:41;;;;;;;10.70;7.15;;;;;16.00;102549.00;;;;5034364;28;20592;-84
2021/11/15 00:40:11;;;;;;;8.48;6.38;;;;;16.00;102547.00;;;;5046084;28;20199;-85
2021/11/15 00:42:39;;;;;;;10.75;6.63;;;;;16.00;102545.00;;;;5043607;28;20716;-85
2021/11/15 00:45:10;;;;;;;9.98;6.53;;;;;15.90;102540.00;;;;5044221;28;20202;-84
2021/11/15 00:47:37;;;;;;;10.00;6.40;;;;;15.90;102535.00;;;;5034079;28;20211;-85
2021/11/15 00:50:07;;;;;;;9.80;6.70;;;;;15.90;102534.00;;;;5048852;28;20207;-84
2021/11/15 00:52:35;;;;;;;8.75;6.43;;;;;15.90;102539.00;;;;5048246;28;20207;-86
2021/11/15 00:55:03;;;;;;;10.55;6.47;;;;;15.90;102541.00;;;;5048080;28;20577;-85
2021/11/15 00:57:30;;;;;;;10.38;6.15;;;;;15.90;102541.00;;;;5043038;28;20207;-85
2021/11/15 00:59:57;;;;;;;9.10;6.40;;;;;15.90;102539.00;;;;5042337;28;20187;-86
2021/11/15 01:02:27;;;;;;;11.35;6.72;;;;;15.90;102539.00;;;;5037424;28;20238;-85
2021/11/15 01:04:55;;;;;;;8.48;5.95;;;;;15.90;102538.00;;;;5046628;28;20200;-84
2021/11/15 01:07:22;;;;;;;8.57;5.47;;;;;15.90;102541.00;;;;5036927;28;20202;-84
2021/11/15 01:09:49;;;;;;;10.70;7.28;;;;;15.80;102544.00;;;;5044659;28;20241;-84
2021/11/15 01:12:19;;;;;;;9.75;6.07;;;;;15.80;102539.00;;;;5034676;28;20200;-84
2021/11/15 01:14:46;;;;;;;10.95;6.80;;;;;15.80;102539.00;;;;5043441;28;20203;-85
2021/11/15 01:17:14;;;;;;;10.65;6.97;;;;;15.80;102548.00;;;;5047561;28;20203;-84
2021/11/15 01:19:43;;;;;;;10.93;6.47;;;;;15.80;102545.00;;;;5040186;28;20589;-84
2021/11/15 01:22:10;;;;;;;9.18;6.38;;;;;15.80;102541.00;;;;5048114;28;20241;-85
2021/11/15 01:24:38;;;;;;;10.77;6.65;;;;;15.80;102546.00;;;;5044754;28;20219;-85
2021/11/15 01:27:06;;;;;;;10.05;7.10;;;;;15.80;102544.00;;;;5040144;28;20653;-85
2021/11/15 01:29:34;;;;;;;9.57;6.57;;;;;15.80;102540.00;;;;5041529;28;20673;-85
2021/11/15 01:32:01;;;;;;;13.13;7.68;;;;;15.80;102548.00;;;;5040830;28;20200;-85
2021/11/15 01:34:30;;;;;;;8.63;6.50;;;;;15.80;102539.00;;;;5045584;28;20226;-85
2021/11/15 01:36:58;;;;;;;9.00;6.13;;;;;15.70;102536.00;;;;5047265;28;20204;-85
2021/11/15 01:39:26;;;;;;;10.13;6.78;;;;;15.70;102532.00;;;;5032784;28;20207;-86
2021/11/15 01:41:55;;;;;;;11.07;7.13;;;;;15.70;102532.00;;;;5045593;28;20306;-85
2021/11/15 01:44:22;;;;;;;10.82;7.13;;;;;15.70;102532.00;;;;5044999;28;20738;-85
2021/11/15 01:46:50;;;;;;;8.02;6.13;;;;;15.70;102534.00;;;;5047226;28;20199;-84
2021/11/15 01:49:17;;;;;;;9.45;6.40;;;;;15.70;102533.00;;;;5038463;28;20559;-84
2021/11/15 01:51:45;;;;;;;10.93;6.70;;;;;15.70;102536.00;;;;5039187;28;20234;-85
2021/11/15 01:54:14;;;;;;;10.10;6.70;;;;;15.60;102537.00;;;;5041151;28;20199;-85
2021/11/15 01:56:41;;;;;;;8.50;6.38;;;;;15.60;102533.00;;;;5040783;28;20200;-84
2021/11/15 01:59:09;;;;;;;9.27;6.43;;;;;15.60;102537.00;;;;5039896;28;20206;-85
2021/11/15 02:01:37;;;;;;;9.88;6.57;;;;;15.60;102528.00;;;;5041628;28;20200;-84
2021/11/15 02:04:04;;;;;;;10.13;6.07;;;;;15.60;102532.00;;;;5049226;28;20192;-84
2021/11/15 02:06:32;;;;;;;8.98;6.55;;;;;15.60;102534.00;;;;5040019;28;20585;-84
2021/11/15 02:09:01;;;;;;;8.98;6.57;;;;;15.60;102534.00;;;;5040260;28;20202;-85
2021/11/15 02:11:30;;;;;;;11.05;6.57;;;;;15.60;102535.00;;;;5033311;28;20200;-84
2021/11/15 02:13:57;;;;;;;8.18;5.65;;;;;15.60;102540.00;;;;5047700;28;20215;-84
2021/11/15 02:16:25;;;;;;;10.95;6.57;;;;;15.60;102533.00;;;;5045729;28;20389;-85
2021/11/15 02:18:53;;;;;;;9.57;6.70;;;;;15.50;102534.00;;;;5040868;28;20192;-86
2021/11/15 02:21:23;;;;;;;9.30;6.53;;;;;15.50;102527.00;;;;5045439;28;20208;-85
2021/11/15 02:23:52;;;;;;;9.65;6.13;;;;;15.50;102526.00;;;;5041257;28;20265;-85
2021/11/15 02:26:22;;;;;;;7.70;5.20;;;;;15.50;102525.00;;;;5045393;28;20199;-85
2021/11/15 02:28:51;;;;;;;8.65;5.70;;;;;15.40;102519.00;;;;5049038;28;20569;-84
2021/11/15 02:31:22;;;;;;;8.80;6.18;;;;;15.40;102518.00;;;;5043155;28;20829;-84
2021/11/15 02:33:51;;;;;;;8.15;5.95;;;;;15.40;102524.00;;;;5040106;28;20203;-84
2021/11/15 02:36:21;;;;;;;10.02;6.20;;;;;15.40;102520.00;;;;5045203;28;20204;-84
2021/11/15 02:38:51;;;;;;;7.15;5.70;;;;;15.40;102520.00;;;;5045284;28;20719;-84
2021/11/15 02:41:19;;;;;;;9.48;6.35;;;;;15.40;102517.00;;;;5040417;28;20283;-85
2021/11/15 02:43:46;;;;;;;9.38;5.82;;;;;15.40;102517.00;;;;5035104;28;20224;-85
2021/11/15 02:46:14;;;;;;;11.93;6.60;;;;;15.40;102516.00;;;;5040849;28;20701;-84
2021/11/15 02:48:42;;;;;;;9.73;6.38;;;;;15.40;102514.00;;;;5034380;28;20246;-85
2021/11/15 02:51:10;;;;;;;9.73;6.85;;;;;15.40;102511.00;;;;5040608;28;20230;-84
2021/11/15 02:53:39;;;;;;;10.13;6.18;;;;;15.40;102511.00;;;;5045368;28;20199;-85
2021/11/15 02:56:07;;;;;;;9.43;6.28;;;;;15.40;102506.00;;;;5044995;28;20732;-84
2021/11/15 02:58:36;;;;;;;9.35;5.88;;;;;15.40;102507.00;;;;5049027;28;20202;-85
2021/11/15 03:01:07;;;;;;;8.60;5.78;;;;;15.30;102511.00;;;;5036672;28;20200;-85
2021/11/15 03:03:35;;;;;;;9.95;6.18;;;;;15.30;102509.00;;;;5038987;28;20234;-85
2021/11/15 03:06:03;;;;;;;8.35;5.53;;;;;15.30;102509.00;;;;5045045;28;20199;-85
2021/11/15 03:08:30;;;;;;;7.65;5.72;;;;;15.30;102508.00;;;;5037998;28;20203;-85
2021/11/15 03:11:01;;;;;;;8.82;5.75;;;;;15.20;102504.00;;;;5035498;28;20203;-84
2021/11/15 03:13:31;;;;;;;8.70;6.20;;;;;15.20;102506.00;;;;5035840;28;20616;-85
2021/11/15 03:15:58;;;;;;;8.82;5.60;;;;;15.20;102509.00;;;;5041896;28;20223;-85
2021/11/15 03:18:27;;;;;;;10.15;5.55;;;;;15.20;102508.00;;;;5032224;28;20209;-84
2021/11/15 03:20:57;;;;;;;8.35;5.53;;;;;15.20;102497.00;;;;5046846;28;20227;-85
2021/11/15 03:23:27;;;;;;;8.57;5.30;;;;;15.20;102493.00;;;;5047821;28;20210;-85
2021/11/15 03:25:58;;;;;;;7.53;5.50;;;;;15.20;102500.00;;;;5047079;28;21034;-85
2021/11/15 03:28:28;;;;;;;8.27;5.57;;;;;15.20;102498.00;;;;5041873;28;20201;-84
2021/11/15 03:30:59;;;;;;;8.15;5.95;;;;;15.20;102505.00;;;;5037453;28;20199;-85
2021/11/15 03:33:31;;;;;;;9.73;5.82;;;;;15.20;102506.00;;;;5043164;28;20210;-84
2021/11/15 03:35:58;;;;;;;7.65;5.22;;;;;15.20;102500.00;;;;5047590;28;20203;-84
2021/11/15 03:38:26;;;;;;;8.70;5.38;;;;;15.20;102497.00;;;;5037045;28;20204;-85
2021/11/15 03:40:54;;;;;;;7.90;5.25;;;;;15.20;102506.00;;;;5036701;28;20214;-84
2021/11/15 03:43:23;;;;;;;8.18;4.72;;;;;15.20;102502.00;;;;5042834;28;20238;-83
2021/11/15 03:45:50;;;;;;;6.43;4.45;;;;;15.20;102507.00;;;;5047600;28;20644;-84
2021/11/15 03:48:20;;;;;;;8.00;5.47;;;;;15.20;102515.00;;;;5047980;28;20203;-85
2021/11/15 03:50:48;;;;;;;10.30;5.50;;;;;15.20;102510.00;;;;5033791;28;20278;-85
2021/11/15 03:53:16;;;;;;;6.88;4.82;;;;;15.20;102508.00;;;;5033568;28;20200;-84
2021/11/15 03:55:43;;;;;;;6.25;4.45;;;;;15.20;102512.00;;;;5039371;28;21085;-84
2021/11/15 03:58:10;;;;;;;8.35;5.15;;;;;15.20;102519.00;;;;5040205;28;20195;-85
2021/11/15 04:00:41;;;;;;;8.32;5.43;;;;;15.20;102517.00;;;;5036956;28;20202;-85
2021/11/15 04:03:16;;;;;;;6.47;4.85;;;;;15.20;102511.00;;;;5044735;28;20223;-84
2021/11/15 04:05:49;;;;;;;7.65;5.05;;;;;15.10;102504.00;;;;5034358;28;20200;-84
2021/11/15 04:08:17;;;;;;;9.60;5.20;;;;;15.20;102507.00;;;;5032366;28;20228;-84
2021/11/15 04:10:46;;;;;;;8.10;5.03;;;;;15.10;102499.00;;;;5035855;28;20669;-83
2021/11/15 04:13:17;;;;;;;7.57;5.07;;;;;15.10;102500.00;;;;5042882;28;20199;-84
2021/11/15 04:15:46;;;;;;;7.47;5.07;;;;;15.10;102506.00;;;;5043577;28;20196;-84
2021/11/15 04:18:15;;;;;;;6.65;5.30;;;;;15.10;102510.00;;;;5031313;28;20188;-86
2021/11/15 04:20:44;;;;;;;7.50;4.80;;;;;15.10;102509.00;;;;5041199;28;20204;-85
2021/11/15 04:23:12;;;;;;;6.65;4.47;;;;;15.10;102510.00;;;;5044929;28;20234;-84
2021/11/15 04:25:40;;;;;;;7.78;4.97;;;;;15.10;102507.00;;;;5041169;28;21000;-84
2021/11/15 04:28:08;;;;;;;8.40;4.70;;;;;15.10;102508.00;;;;5034229;28;20204;-84
2021/11/15 04:30:35;;;;;;;8.48;5.40;;;;;15.10;102511.00;;;;5048188;28;20200;-84
2021/11/15 04:33:06;;;;;;;6.88;4.95;;;;;15.10;102515.00;;;;5045816;28;20208;-84
2021/11/15 04:35:34;;;;;;;8.18;5.28;;;;;15.10;102520.00;;;;5041263;28;20197;-84
2021/11/15 04:38:02;;;;;;;8.15;6.10;;;;;15.10;102518.00;;;;5042531;28;20196;-84
2021/11/15 04:40:30;;;;;;;7.20;5.30;;;;;15.10;102514.00;;;;5036841;28;20210;-85
2021/11/15 04:42:58;;;;;;;12.45;6.13;;;;;15.10;102521.00;;;;5035413;28;20224;-84
2021/11/15 04:45:26;;;;;;;8.85;5.90;;;;;15.10;102523.00;;;;5049867;28;20203;-85
2021/11/15 04:47:54;;;;;;;8.68;6.15;;;;;15.10;102519.00;;;;5048697;28;20200;-85
2021/11/15 04:50:23;;;;;;;9.18;6.18;;;;;15.00;102520.00;;;;5038571;28;20666;-85
2021/11/15 04:52:50;;;;;;;10.13;6.88;;;;;15.00;102520.00;;;;5036332;28;20196;-85
2021/11/15 04:55:20;;;;;;;10.13;6.45;;;;;15.00;102520.00;;;;5040191;28;20554;-84
2021/11/15 04:57:47;;;;;;;8.75;5.95;;;;;15.00;102522.00;;;;5041349;28;20212;-84
2021/11/15 05:00:18;;;;;;;10.65;6.63;;;;;15.00;102525.00;;;;5033560;28;20207;-85
2021/11/15 05:02:46;;;;;;;9.85;5.97;;;;;15.00;102519.00;;;;5039052;28;20219;-84
2021/11/15 05:05:13;;;;;;;11.07;6.22;;;;;15.00;102523.00;;;;5045064;28;20627;-84
2021/11/15 05:07:43;;;;;;;11.60;6.65;;;;;15.00;102516.00;;;;5041825;28;20213;-84
2021/11/15 05:10:11;;;;;;;9.73;5.47;;;;;15.00;102522.00;;;;5042841;28;20294;-85
2021/11/15 05:12:39;;;;;;;8.45;5.75;;;;;15.00;102520.00;;;;5044143;28;20204;-84
2021/11/15 05:15:09;;;;;;;15.15;7.25;;;;;15.00;102526.00;;;;5036375;28;20207;-85
2021/11/15 05:17:37;;;;;;;9.43;6.22;;;;;15.00;102529.00;;;;5037074;28;20258;-84
2021/11/15 05:20:05;;;;;;;7.90;5.28;;;;;15.00;102530.00;;;;5037530;28;20195;-85
2021/11/15 05:22:33;;;;;;;9.90;6.53;;;;;15.00;102525.00;;;;5033958;28;20215;-84
2021/11/15 05:25:01;;;;;;;9.80;6.05;;;;;15.00;102525.00;;;;5034537;28;20203;-84
2021/11/15 05:27:29;;;;;;;9.60;6.32;;;;;15.00;102526.00;;;;5046115;28;20199;-85
2021/11/15 05:29:57;;;;;;;9.27;6.25;;;;;15.00;102526.00;;;;5033431;28;20192;-84
2021/11/15 05:32:24;;;;;;;9.80;6.72;;;;;15.00;102528.00;;;;5038710;28;20568;-85
2021/11/15 05:34:51;;;;;;;10.45;6.00;;;;;15.00;102531.00;;;;5036000;28;20196;-85
2021/11/15 05:37:19;;;;;;;11.32;6.78;;;;;15.00;102526.00;;;;5030939;28;20197;-85
2021/11/15 05:39:46;;;;;;;11.20;7.03;;;;;15.00;102527.00;;;;5040619;28;20204;-85
2021/11/15 05:42:15;;;;;;;11.48;7.50;;;;;15.00;102525.00;;;;5036135;28;20208;-84
2021/11/15 05:44:42;;;;;;;10.07;6.07;;;;;15.00;102529.00;;;;5034346;28;20224;-85
2021/11/15 05:47:10;;;;;;;19.27;12.53;;;;;15.00;102528.00;;;;5032709;28;20447;-86
2021/11/15 05:49:37;;;;;;;13.25;8.95;;;;;15.10;102520.00;;;;5045423;28;20206;-85
2021/11/15 05:52:05;;;;;;;11.25;7.32;;;;;15.10;102521.00;;;;5035462;28;20228;-85
2021/11/15 05:54:33;;;;;;;9.77;7.25;;;;;15.10;102514.00;;;;5032234;28;20192;-85
2021/11/15 05:57:00;;;;;;;10.23;7.00;;;;;15.10;102513.00;;;;5039577;28;20203;-84
2021/11/15 05:59:29;;;;;;;11.18;7.53;;;;;15.10;102513.00;;;;5032372;28;20213;-84
2021/11/15 06:01:56;;;;;;;9.00;6.40;;;;;15.10;102511.00;;;;5033961;28;20192;-84
2021/11/15 06:04:23;;;;;;;9.40;6.18;;;;;15.10;102515.00;;;;5047282;28;20234;-84
2021/11/15 06:06:51;;;;;;;9.18;6.57;;;;;15.10;102519.00;;;;5033635;28;20200;-85
2021/11/15 06:09:19;;;;;;;10.60;6.45;;;;;15.00;102525.00;;;;5033911;28;20684;-85
2021/11/15 06:11:46;;;;;;;9.52;6.18;;;;;15.00;102528.00;;;;5038163;28;20203;-84
2021/11/15 06:14:13;;;;;;;10.23;6.68;;;;;15.00;102535.00;;;;5034845;28;20207;-84
2021/11/15 06:16:42;;;;;;;9.88;5.88;;;;;15.00;102537.00;;;;5040384;28;20192;-84
2021/11/15 06:19:09;;;;;;;10.80;6.95;;;;;15.00;102539.00;;;;5043900;28;20642;-84
2021/11/15 06:21:37;;;;;;;9.93;6.25;;;;;15.00;102536.00;;;;5041181;28;20251;-84
2021/11/15 06:24:05;;;;;;;8.77;5.97;;;;;14.90;102539.00;;;;5043534;28;20216;-84
2021/11/15 06:26:32;;;;;;;9.48;6.28;;;;;14.90;102539.00;;;;5048911;28;20214;-84
2021/11/15 06:29:00;;;;;;;9.85;6.40;;;;;14.90;102533.00;;;;5039764;28;20196;-84
2021/11/15 06:31:27;;;;;;;12.20;7.85;;;;;14.90;102547.00;;;;5036995;28;20227;-84
2021/11/15 06:33:56;;;;;;;10.48;6.32;;;;;14.90;102547.00;;;;5034730;28;20226;-84
2021/11/15 06:36:26;;;;;;;11.23;7.32;;;;;14.90;102545.00;;;;5037182;28;20205;-83
2021/11/15 06:38:57;;;;;;;10.48;6.68;;;;;14.90;102547.00;;;;5051461;28;20191;-83
2021/11/15 06:41:25;;;;;;;13.05;7.22;;;;;14.90;102553.00;;;;5031356;28;20196;-83
2021/11/15 06:43:52;;;;;;;9.25;6.28;;;;;14.90;102551.00;;;;5042438;28;20227;-84
2021/11/15 06:46:20;;;;;;;11.85;6.53;;;;;14.90;102551.00;;;;5032906;28;20195;-82
2021/11/15 06:48:47;;;;;;;12.40;7.30;;;;;14.90;102546.00;;;;5040482;28;20299;-82
2021/11/15 06:51:16;;;;;;;9.75;6.78;;;;;14.90;102548.00;;;;5028412;28;20588;-83
2021/11/15 06:53:45;;;;;;;10.32;6.53;;;;;14.90;102547.00;;;;5036076;28;20222;-82
2021/11/15 06:56:12;;;;;;;10.88;7.35;;;;;14.90;102545.00;;;;5033859;28;20200;-83
2021/11/15 06:58:39;;;;;;;10.73;6.80;;;;;14.90;102544.00;;;;5040470;28;20203;-83
2021/11/15 07:01:07;;;;;;;9.88;6.43;;;;;14.90;102552.00;;;;5037435;28;20215;-84
2021/11/15 07:03:34;;;;;;;11.07;7.43;;;;;14.90;102546.00;;;;5035802;28;20220;-86
2021/11/15 07:06:02;;;;;;;10.35;6.75;;;;;14.90;102547.00;;;;5033131;28;20208;-83
2021/11/15 07:08:30;;;;;;;9.95;6.75;;;;;14.90;102550.00;;;;5041268;28;20222;-82
2021/11/15 07:10:58;;;;;;;10.75;6.70;;;;;14.90;102552.00;;;;5033431;28;20203;-83
2021/11/15 07:13:25;;;;;;;14.15;7.97;;;;;14.90;102546.00;;;;5041101;28;20318;-83
2021/11/15 07:15:53;;;;;;;11.57;7.25;;;;;14.90;102560.00;;;;5048371;28;20208;-82
2021/11/15 07:18:20;;;;;;;10.50;6.90;;;;;14.90;102560.00;;;;5035438;28;20204;-82
2021/11/15 07:20:48;;;;;;;11.00;7.20;;;;;14.90;102555.00;;;;5041117;28;20199;-83
2021/11/15 07:23:15;;;;;;;12.13;7.32;;;;;14.90;102545.00;;;;5034721;28;20203;-83
2021/11/15 07:25:44;;;;;;;9.73;6.70;;;;;14.90;102550.00;;;;5028626;28;20196;-83
2021/11/15 07:28:12;;;;;;;11.00;6.53;;;;;14.90;102541.00;;;;5043240;28;20666;-83
2021/11/15 07:30:40;;;;;;;10.10;6.68;;;;;14.90;102541.00;;;;5039731;28;20210;-83
2021/11/15 07:33:08;;;;;;;9.18;5.95;;;;;14.90;102545.00;;;;5037679;28;20661;-82
2021/11/15 07:35:35;;;;;;;11.73;7.18;;;;;14.90;102548.00;;;;5043401;28;20605;-82
2021/11/15 07:38:03;;;;;;;10.43;7.53;;;;;14.90;102551.00;;;;5037425;28;20213;-83
2021/11/15 07:40:30;;;;;;;13.93;7.15;;;;;14.90;102558.00;;;;5042750;28;20203;-83
2021/11/15 07:42:59;;;;;;;11.00;6.85;;;;;14.90;102556.00;;;;5038931;28;20204;-83
2021/11/15 07:45:26;;;;;;;9.77;6.53;;;;;14.90;102561.00;;;;5046917;28;20231;-83
2021/11/15 07:47:53;;;;;;;10.00;6.50;;;;;14.90;102560.00;;;;5038245;28;20208;-83
2021/11/15 07:50:21;;;;;;;11.23;6.60;;;;;14.90;102552.00;;;;5045099;28;20200;-82
2021/11/15 07:52:48;;;;;;;8.82;5.78;;;;;14.90;102557.00;;;;5036466;28;20196;-81
2021/11/15 07:55:16;;;;;;;9.07;5.90;;;;;14.90;102557.00;;;;5047428;28;20203;-82
2021/11/15 07:57:45;;;;;;;9.77;6.20;;;;;14.90;102556.00;;;;5039842;28;20206;-83
2021/11/15 08:00:16;;;;;;;8.88;5.72;;;;;14.80;102552.00;;;;5042328;28;20407;-82
2021/11/15 08:02:44;;;;;;;8.70;5.72;;;;;14.90;102556.00;;;;5038609;28;20192;-83
2021/11/15 08:05:14;;;;;;;8.63;5.70;;;;;14.80;102550.00;;;;5035767;28;20220;-84
2021/11/15 08:07:41;;;;;;;8.32;6.45;;;;;14.90;102558.00;;;;5047335;28;20204;-84
2021/11/15 08:10:11;;;;;;;10.15;5.97;;;;;14.90;102557.00;;;;5037808;28;20700;-84
2021/11/15 08:12:40;;;;;;;10.43;5.97;;;;;14.90;102556.00;;;;5040727;28;20286;-84
2021/11/15 08:15:13;;;;;;;12.23;7.07;;;;;14.90;102560.00;;;;5030046;28;20196;-83
2021/11/15 08:17:45;;;;;;;13.05;7.00;;;;;14.90;102558.00;;;;5038623;28;20546;-83
2021/11/15 08:20:14;;;;;;;9.07;5.30;;;;;15.00;102561.00;;;;5036964;28;20654;-83
2021/11/15 08:22:45;;;;;;;11.82;6.75;;;;;15.00;102560.00;;;;5047626;28;20223;-81
2021/11/15 08:25:46;;;;;;;9.15;5.97;;;;;14.90;102551.00;;;;5039191;28;20230;-81
2021/11/15 08:28:13;;;;;;;10.65;6.28;;;;;15.00;102550.00;;;;5037397;28;20202;-83
2021/11/15 08:30:41;;;;;;;9.43;6.32;;;;;15.00;102553.00;;;;5036458;28;20302;-84
2021/11/15 08:33:10;;;;;;;11.55;5.35;;;;;15.00;102550.00;;;;5033610;28;20328;-83
2021/11/15 08:35:39;;;;;;;9.25;5.93;;;;;15.00;102554.00;;;;5043980;28;20354;-83
2021/11/15 08:38:45;;;;;;;8.25;5.80;;;;;14.90;102554.00;;;;5044166;28;20196;-84
2021/11/15 08:41:15;;;;;;;9.68;5.57;;;;;14.90;102557.00;;;;5042502;28;20199;-83
2021/11/15 08:43:44;;;;;;;10.18;6.10;;;;;14.90;102560.00;;;;5030488;28;20197;-82
2021/11/15 08:46:15;;;;;;;10.32;6.22;;;;;14.90;102558.00;;;;5040061;28;20223;-82
2021/11/15 08:48:45;;;;;;;10.35;6.55;;;;;14.90;102564.00;;;;5037396;28;20662;-82
2021/11/15 08:51:14;;;;;;;10.23;6.35;;;;;14.90;102567.00;;;;5042997;28;20219;-81
2021/11/15 08:53:43;;;;;;;12.25;7.30;;;;;14.90;102571.00;;;;5050346;28;20198;-81
2021/11/15 08:56:11;;;;;;;8.93;5.50;;;;;14.90;102561.00;;;;5045960;28;20576;-81
2021/11/15 08:58:39;;;;;;;11.15;6.85;;;;;14.90;102561.00;;;;5043200;28;20216;-81
2021/11/15 09:01:07;;;;;;;11.48;6.32;;;;;14.90;102557.00;;;;5038114;28;20212;-81
2021/11/15 09:03:38;;;;;;;9.50;6.32;;;;;14.90;102556.00;;;;5040627;28;20199;-82
2021/11/15 09:06:08;;;;;;;9.32;5.95;;;;;14.90;102556.00;;;;5031980;28;20212;-82
2021/11/15 09:08:35;;;;;;;9.55;6.72;;;;;14.90;102556.00;;;;5042567;28;20199;-82
2021/11/15 09:11:04;;;;;;;9.63;6.15;;;;;14.90;102552.00;;;;5037213;28;20205;-82
2021/11/15 09:13:32;;;;;;;9.55;6.15;;;;;14.90;102555.00;;;;5042594;28;20199;-82
2021/11/15 09:16:00;;;;;;;9.23;6.63;;;;;14.90;102552.00;;;;5037912;28;20199;-82
2021/11/15 09:18:27;;;;;;;9.13;5.85;;;;;14.90;102555.00;;;;5042012;28;20590;-82
2021/11/15 09:20:55;;;;;;;11.35;6.97;;;;;14.90;102553.00;;;;5043314;28;20223;-84
2021/11/15 09:23:24;;;;;;;9.85;6.75;;;;;14.80;102553.00;;;;5042646;28;20200;-83
2021/11/15 09:25:59;;;;;;;10.27;6.05;;;;;14.80;102550.00;;;;5040897;28;20290;-83
2021/11/15 09:28:26;;;;;;;9.82;6.57;;;;;14.90;102546.00;;;;5035373;28;20194;-82
2021/11/15 09:30:53;;;;;;;10.93;6.70;;;;;14.80;102545.00;;;;5043256;28;20196;-83
2021/11/15 09:33:21;;;;;;;10.13;6.35;;;;;14.80;102550.00;;;;5034210;28;20223;-83
2021/11/15 09:35:51;;;;;;;10.25;5.80;;;;;14.80;102547.00;;;;5031446;28;20200;-82
2021/11/15 09:38:21;;;;;;;10.50;6.05;;;;;14.80;102545.00;;;;5039267;28;20211;-83
2021/11/15 09:40:56;;;;;;;9.50;5.28;;;;;14.80;102543.00;;;;5032483;28;20204;-83
2021/11/15 09:43:24;;;;;;;11.65;7.00;;;;;14.80;102543.00;;;;5035802;28;20202;-83
2021/11/15 09:45:51;;;;;;;9.77;5.53;;;;;14.80;102544.00;;;;5036762;28;20239;-84
2021/11/15 09:48:19;;;;;;;9.60;5.88;;;;;14.80;102541.00;;;;5036866;28;20199;-84
2021/11/15 09:50:46;;;;;;;8.52;5.40;;;;;14.80;102547.00;;;;5035398;28;20241;-80
2021/11/15 09:53:13;;;;;;;8.82;5.88;;;;;14.70;102550.00;;;;5031249;28;20207;-83
2021/11/15 09:55:41;;;;;;;9.75;5.60;;;;;14.70;102551.00;;;;5031860;28;20295;-82
2021/11/15 09:58:09;;;;;;;9.10;5.65;;;;;14.70;102558.00;;;;5034773;28;20234;-83
2021/11/15 10:00:39;;;;;;;11.38;6.47;;;;;14.70;102557.00;;;;5032190;28;20675;-82
2021/11/15 10:03:07;;;;;;;9.00;6.25;;;;;14.70;102551.00;;;;5036257;28;20207;-83
2021/11/15 10:05:34;;;;;;;10.50;6.15;;;;;14.70;102554.00;;;;5036284;28;20247;-84
2021/11/15 10:08:09;;;;;;;11.45;6.45;;;;;14.70;102553.00;;;;5049303;28;20666;-83
2021/11/15 10:10:40;;;;;;;9.63;5.10;;;;;14.70;102552.00;;;;5048254;28;20624;-83
2021/11/15 10:13:24;;;;;;;10.45;5.25;;;;;14.60;102554.00;;;;5034672;28;20196;-83
2021/11/15 10:16:04;;;;;;;11.93;6.43;;;;;14.70;102561.00;;;;5048962;28;20760;-84
2021/11/15 10:18:42;;;;;;;9.90;6.03;;;;;14.60;102555.00;;;;5040023;28;20196;-84
2021/11/15 10:21:12;;;;;;;11.40;5.80;;;;;14.70;102553.00;;;;5044432;28;20235;-83
2021/11/15 10:23:44;;;;;;;8.90;5.10;;;;;14.70;102555.00;;;;5049361;28;20203;-83
2021/11/15 10:26:17;;;;;;;9.43;5.20;;;;;14.70;102549.00;;;;5048428;28;20258;-84
2021/11/15 10:28:46;;;;;;;9.85;6.32;;;;;14.70;102546.00;;;;5039001;28;20204;-83
2021/11/15 10:31:44;;;;;;;9.60;5.43;;;;;14.60;102551.00;;;;5047900;28;20195;-83
2021/11/15 10:34:14;;;;;;;8.70;4.85;;;;;14.70;102551.00;;;;5024895;28;20200;-84
2021/11/15 10:36:47;;;;;;;8.75;5.05;;;;;14.70;102555.00;;;;5042064;28;20206;-83
2021/11/15 10:39:15;;;;;;;10.20;6.00;;;;;14.70;102553.00;;;;5038687;28;20192;-83
2021/11/15 10:41:43;;;;;;;10.02;4.90;;;;;14.70;102557.00;;;;5029126;28;20203;-82
2021/11/15 10:44:12;;;;;;;7.85;4.40;;;;;14.70;102555.00;;;;5036205;28;20204;-84
2021/11/15 10:46:41;;;;;;;9.07;4.40;;;;;14.70;102546.00;;;;5031776;28;20639;-83
2021/11/15 10:49:10;;;;;;;8.35;4.78;;;;;14.70;102548.00;;;;5039071;28;20236;-84
2021/11/15 10:51:50;;;;;;;8.07;5.15;;;;;14.70;102549.00;;;;5037975;28;20231;-83
2021/11/15 10:54:51;;;;;;;8.57;5.03;;;;;14.60;102548.00;;;;5039370;28;20284;-83
2021/11/15 10:57:22;;;;;;;6.82;3.92;;;;;14.70;102545.00;;;;5032006;28;20677;-83
2021/11/15 11:00:11;;;;;;;8.38;4.72;;;;;14.70;102538.00;;;;5048362;28;20203;-83
2021/11/15 11:02:41;;;;;;;8.07;5.18;;;;;14.80;102535.00;;;;5046342;28;20191;-83
2021/11/15 11:05:10;;;;;;;8.52;5.25;;;;;14.80;102538.00;;;;5043706;28;20315;-83
2021/11/15 11:07:38;;;;;;;9.25;5.80;;;;;14.80;102538.00;;;;5032658;28;20203;-84
2021/11/15 11:10:08;;;;;;;9.95;6.63;;;;;14.80;102536.00;;;;5042637;28;20202;-84
2021/11/15 11:12:40;;;;;;;11.73;7.65;;;;;14.80;102525.00;;;;5036352;28;20192;-83
2021/11/15 11:15:24;;;;;;;11.45;7.88;;;;;14.70;102526.00;;;;5036476;28;20204;-84
2021/11/15 11:18:04;;;;;;;14.85;10.30;;;;;14.70;102520.00;;;;5032523;28;20204;-83
2021/11/15 11:26:58;;;;;;;7.72;4.43;;;;;14.70;102514.00;;;;5045513;28;20222;-83
2021/11/15 11:29:32;;;;;;;9.55;6.82;;;;;14.70;102511.00;;;;5043052;28;20249;-83
2021/11/15 11:32:05;;;;;;;11.65;7.20;;;;;14.70;102508.00;;;;5048882;28;20249;-83
2021/11/15 11:34:33;;;;;;;29.58;20.55;;;;;14.80;102509.00;;;;5046710;28;20210;-83
2021/11/15 11:37:02;;;;;;;30.77;22.65;;;;;14.80;102507.00;;;;5041338;28;21020;-83
2021/11/15 11:39:30;;;;;;;18.67;12.73;;;;;14.80;102502.00;;;;5041637;28;20204;-80
2021/11/15 11:42:00;;;;;;;33.35;26.77;;;;;14.80;102506.00;;;;5040189;28;20196;-84
2021/11/15 11:44:31;;;;;;;23.55;18.02;;;;;14.70;102501.00;;;;5037376;28;20610;-84
2021/11/15 11:47:02;;;;;;;18.65;12.55;;;;;14.80;102497.00;;;;5050859;28;20282;-84
2021/11/15 11:49:29;;;;;;;12.02;7.78;;;;;14.80;102497.00;;;;5040678;28;20196;-83
2021/11/15 11:51:59;;;;;;;10.77;6.68;;;;;14.80;102498.00;;;;5033054;28;20718;-83
2021/11/15 11:54:30;;;;;;;38.45;30.10;;;;;14.80;102504.00;;;;5041432;28;20227;-84
2021/11/15 11:57:08;;;;;;;32.08;23.52;;;;;14.70;102504.00;;;;5041953;28;20613;-83
2021/11/15 11:59:39;;;;;;;30.27;20.13;;;;;14.80;102505.00;;;;5033531;28;20211;-82
2021/11/15 12:02:10;;;;;;;17.85;12.93;;;;;14.70;102502.00;;;;5035023;28;20767;-84
2021/11/15 12:04:49;;;;;;;17.77;11.95;;;;;14.70;102494.00;;;;5042097;28;20202;-83
2021/11/15 12:07:24;;;;;;;25.42;16.63;;;;;14.70;102502.00;;;;5040216;28;20527;-83
2021/11/15 12:09:52;;;;;;;18.77;13.25;;;;;14.80;102495.00;;;;5042696;28;20195;-83
2021/11/15 12:12:19;;;;;;;34.15;24.95;;;;;14.80;102500.00;;;;5047306;28;20199;-84
2021/11/15 12:14:47;;;;;;;30.67;23.35;;;;;14.80;102494.00;;;;5044327;28;20211;-83
2021/11/15 12:17:17;;;;;;;20.88;13.77;;;;;14.70;102492.00;;;;5035891;28;20203;-85
2021/11/15 12:20:07;;;;;;;12.73;8.63;;;;;14.70;102483.00;;;;5041286;28;20201;-84